Time;durP1;ratioP1;P1;durP2;ratioP2;P2;SDS_P1;SDS_P2;PMS_P1;PMS_P2;Temp;Humidity;BMP_temperature;BMP_pressure;BME280_temperature;BME280_humidity;BME280_pressure;Samples;Min_cycle;Max_cycle;Signal;HPM_P1;HPM_P2
2023/02/05 00:00:20;;;;;;;3.13;2.17;;;;;;;-6.42;100.00;103135.44;5003216;28;20487;-76
2023/02/05 00:02:48;;;;;;;2.10;1.50;;;;;;;-6.41;100.00;103134.66;4992641;28;20479;-76
2023/02/05 00:05:15;;;;;;;1.80;1.60;;;;;;;-6.38;100.00;103134.94;5000308;28;20784;-76
2023/02/05 00:07:41;;;;;;;3.13;2.10;;;;;;;-6.47;100.00;103141.78;4997975;28;20535;-77
2023/02/05 00:10:08;;;;;;;6.23;2.03;;;;;;;-6.29;100.00;103143.31;4999110;28;20510;-75
2023/02/05 00:12:37;;;;;;;5.53;2.80;;;;;;;-6.21;100.00;103145.56;4999648;28;21039;-77
2023/02/05 00:15:04;;;;;;;4.20;2.40;;;;;;;-6.35;100.00;103147.88;4996249;28;20851;-76
2023/02/05 00:17:30;;;;;;;4.30;2.17;;;;;;;-5.99;100.00;103146.59;4997803;28;20452;-76
2023/02/05 00:19:57;;;;;;;4.20;1.93;;;;;;;-6.15;100.00;103136.81;4998042;28;20475;-76
2023/02/05 00:22:23;;;;;;;4.33;2.33;;;;;;;-6.23;100.00;103136.94;4997859;28;20477;-76
2023/02/05 00:24:49;;;;;;;3.33;1.77;;;;;;;-6.07;100.00;103136.56;4999428;28;20456;-77
2023/02/05 00:27:16;;;;;;;2.73;2.30;;;;;;;-6.14;100.00;103120.84;4996353;28;21011;-77
2023/02/05 00:29:44;;;;;;;4.33;2.40;;;;;;;-6.15;100.00;103123.25;5034450;23;20910;-73
2023/02/05 00:32:10;;;;;;;2.33;2.13;;;;;;;-6.33;100.00;103122.59;4996503;28;20468;-73
2023/02/05 00:34:36;;;;;;;5.70;2.80;;;;;;;-6.33;100.00;103125.13;4998028;28;20463;-73
2023/02/05 00:37:03;;;;;;;2.10;1.90;;;;;;;-6.56;100.00;103125.75;4998625;28;20462;-73
2023/02/05 00:39:29;;;;;;;5.37;1.87;;;;;;;-6.39;100.00;103128.06;4998988;28;20840;-74
2023/02/05 00:42:00;;;;;;;3.30;2.33;;;;;;;-6.29;100.00;103133.13;4977032;28;20467;-73
2023/02/05 00:44:29;;;;;;;3.20;1.63;;;;;;;-6.12;100.00;103128.53;4981290;28;20476;-72
2023/02/05 00:46:57;;;;;;;3.87;2.23;;;;;;;-6.20;100.00;103127.06;4978303;28;20461;-74
2023/02/05 00:49:24;;;;;;;5.60;2.17;;;;;;;-6.29;100.00;103127.19;4977284;28;20477;-73
2023/02/05 00:51:50;;;;;;;2.73;1.97;;;;;;;-6.35;100.00;103126.66;4981332;28;20865;-73
2023/02/05 00:54:16;;;;;;;3.00;1.90;;;;;;;-6.38;100.00;103134.06;4981814;28;20487;-73
2023/02/05 00:56:43;;;;;;;4.67;2.20;;;;;;;-6.28;100.00;103142.56;4981087;28;20976;-73
2023/02/05 00:59:09;;;;;;;1.97;1.77;;;;;;;-6.49;100.00;103141.66;4980677;28;20472;-74
2023/02/05 01:01:35;;;;;;;3.10;1.93;;;;;;;-6.67;100.00;103142.63;4976969;28;20554;-73
2023/02/05 01:04:07;;;;;;;4.30;2.37;;;;;;;-6.72;100.00;103148.97;4977682;28;20475;-74
2023/02/05 01:06:33;;;;;;;4.37;2.20;;;;;;;-6.81;100.00;103149.06;4977614;28;20468;-73
2023/02/05 01:09:00;;;;;;;2.37;1.90;;;;;;;-6.98;100.00;103154.34;4981300;28;20527;-73
2023/02/05 01:11:28;;;;;;;4.30;2.13;;;;;;;-6.80;100.00;103155.06;4976224;28;20489;-73
2023/02/05 01:13:55;;;;;;;4.87;2.60;;;;;;;-6.41;100.00;103146.47;4980638;28;20456;-73
2023/02/05 01:16:21;;;;;;;4.23;2.40;;;;;;;-6.68;100.00;103151.03;4978424;28;20458;-73
2023/02/05 01:18:48;;;;;;;2.97;1.80;;;;;;;-6.71;100.00;103144.03;4978171;28;20475;-73
2023/02/05 01:21:15;;;;;;;4.30;2.60;;;;;;;-6.80;100.00;103135.66;4981440;28;20984;-74
2023/02/05 01:23:43;;;;;;;5.17;2.53;;;;;;;-6.79;100.00;103126.38;4980900;28;20511;-73
2023/02/05 01:26:09;;;;;;;8.90;3.10;;;;;;;-6.75;100.00;103121.69;4978218;28;20455;-74
2023/02/05 01:28:36;;;;;;;4.20;2.83;;;;;;;-6.73;100.00;103119.28;4980293;28;20452;-73
2023/02/05 01:31:02;;;;;;;5.67;2.97;;;;;;;-6.60;100.00;103108.50;4981429;28;21657;-74
2023/02/05 01:33:29;;;;;;;4.33;2.97;;;;;;;-6.34;100.00;103116.63;4977695;28;20475;-73
2023/02/05 01:35:55;;;;;;;5.87;2.67;;;;;;;-6.58;100.00;103112.06;4977006;28;20457;-72
2023/02/05 01:38:23;;;;;;;3.43;2.50;;;;;;;-6.70;100.00;103105.22;4977326;28;20468;-73
2023/02/05 01:40:50;;;;;;;5.57;2.83;;;;;;;-6.45;100.00;103099.63;4977982;28;20881;-73
2023/02/05 01:43:17;;;;;;;4.13;2.73;;;;;;;-6.76;100.00;103092.00;4981439;28;20849;-73
2023/02/05 01:46:01;;;;;;;4.13;2.30;;;;;;;-6.76;100.00;103089.47;4980255;28;20810;-73
2023/02/05 01:48:32;;;;;;;2.87;1.97;;;;;;;-6.84;100.00;103087.94;4982074;28;20483;-73
2023/02/05 01:51:04;;;;;;;2.80;1.97;;;;;;;-6.85;100.00;103081.97;4979083;28;20852;-73
2023/02/05 01:53:35;;;;;;;4.17;2.13;;;;;;;-6.75;100.00;103082.75;4995222;28;20462;-73
2023/02/05 01:56:06;;;;;;;5.67;2.33;;;;;;;-6.79;100.00;103080.72;4980294;28;20469;-73
2023/02/05 01:58:35;;;;;;;3.93;2.53;;;;;;;-6.59;100.00;103070.56;4980303;28;20559;-73
2023/02/05 02:01:02;;;;;;;4.80;2.63;;;;;;;-6.50;100.00;103072.97;4982279;28;20546;-73
2023/02/05 02:03:31;;;;;;;5.63;2.67;;;;;;;-6.40;100.00;103078.06;4976911;28;20477;-73
2023/02/05 02:05:58;;;;;;;4.60;2.83;;;;;;;-6.87;100.00;103075.88;4972252;28;20483;-73
2023/02/05 02:08:25;;;;;;;4.57;2.60;;;;;;;-7.04;100.00;103073.56;4982062;28;20525;-73
2023/02/05 02:10:55;;;;;;;4.90;2.60;;;;;;;-7.02;100.00;103079.66;4979593;28;20580;-73
2023/02/05 02:13:23;;;;;;;4.10;2.33;;;;;;;-6.96;100.00;103087.81;4972746;28;20456;-74
2023/02/05 02:15:50;;;;;;;5.93;3.23;;;;;;;-7.00;100.00;103073.09;4973507;28;20863;-73
2023/02/05 02:18:28;;;;;;;4.70;2.70;;;;;;;-7.06;100.00;103065.81;4980054;28;20476;-73
2023/02/05 02:21:25;;;;;;;3.70;2.40;;;;;;;-7.24;100.00;103066.81;4976426;28;20587;-72
2023/02/05 02:24:09;;;;;;;4.20;2.10;;;;;;;-7.18;100.00;103071.53;4976417;28;20889;-74
2023/02/05 02:26:53;;;;;;;4.87;2.87;;;;;;;-6.81;100.00;103057.75;4976640;28;20478;-73
2023/02/05 02:29:27;;;;;;;3.63;2.27;;;;;;;-6.75;100.00;103049.78;4975291;28;20465;-73
2023/02/05 02:31:59;;;;;;;3.73;2.40;;;;;;;-6.65;100.00;103049.75;4976435;28;20495;-73
2023/02/05 02:34:31;;;;;;;3.20;2.10;;;;;;;-6.78;100.00;103052.06;4979903;28;20580;-74
2023/02/05 02:37:06;;;;;;;3.13;2.00;;;;;;;-7.06;100.00;103055.69;4977418;28;20456;-73
2023/02/05 02:39:39;;;;;;;4.20;2.57;;;;;;;-7.01;100.00;103045.06;4975092;28;20452;-73
2023/02/05 02:42:12;;;;;;;3.53;1.80;;;;;;;-6.99;100.00;103046.94;4975835;28;20490;-74
2023/02/05 02:44:44;;;;;;;4.33;1.97;;;;;;;-7.07;100.00;103038.72;4977624;28;20574;-74
2023/02/05 02:47:14;;;;;;;4.03;1.93;;;;;;;-7.18;100.00;103031.81;4994263;28;20457;-73
2023/02/05 02:49:46;;;;;;;3.47;1.97;;;;;;;-7.22;100.00;103032.34;4975012;28;20578;-74
2023/02/05 02:52:17;;;;;;;3.27;2.17;;;;;;;-7.11;100.00;103029.03;4976859;28;20860;-73
2023/02/05 02:54:46;;;;;;;2.87;2.10;;;;;;;-7.12;100.00;103034.00;4978724;28;20559;-73
2023/02/05 02:57:17;;;;;;;3.03;2.00;;;;;;;-7.27;100.00;103039.53;4981072;28;20555;-73
2023/02/05 02:59:47;;;;;;;5.00;2.13;;;;;;;-7.19;100.00;103041.84;4981069;28;20460;-73
2023/02/05 03:02:16;;;;;;;3.13;2.13;;;;;;;-7.14;100.00;103045.66;4979010;28;20547;-73
2023/02/05 03:04:46;;;;;;;1.83;1.73;;;;;;;-7.44;100.00;103037.22;4972332;28;20464;-72
2023/02/05 03:07:18;;;;;;;2.67;1.83;;;;;;;-7.42;100.00;103036.59;4975189;28;20460;-73
2023/02/05 03:09:50;;;;;;;2.63;2.43;;;;;;;-7.40;100.00;103033.28;4977018;28;20457;-73
2023/02/05 03:12:18;;;;;;;2.60;1.70;;;;;;;-7.08;100.00;103024.25;4970121;28;20487;-73
2023/02/05 03:14:46;;;;;;;3.93;2.53;;;;;;;-7.09;100.00;103025.00;4980787;28;20459;-72
2023/02/05 03:17:17;;;;;;;3.40;2.27;;;;;;;-7.29;100.00;103030.91;4978563;28;20464;-73
2023/02/05 03:19:44;;;;;;;3.70;2.23;;;;;;;-7.27;100.00;103036.13;4979359;28;20552;-73
2023/02/05 03:22:10;;;;;;;2.93;1.80;;;;;;;-6.88;100.00;103031.00;4980923;28;20483;-73
2023/02/05 03:24:38;;;;;;;3.63;1.90;;;;;;;-6.89;100.00;103038.47;4980063;28;20499;-73
2023/02/05 03:27:05;;;;;;;4.40;2.27;;;;;;;-7.02;100.00;103034.00;4977617;28;20467;-73
2023/02/05 03:29:35;;;;;;;3.33;2.40;;;;;;;-6.94;100.00;103034.66;4977352;28;20517;-72
2023/02/05 03:32:21;;;;;;;4.10;1.93;;;;;;;-7.01;100.00;103032.38;4980361;28;20457;-73
2023/02/05 03:35:04;;;;;;;3.07;1.87;;;;;;;-7.10;100.00;103030.84;4980131;28;20456;-72
2023/02/05 03:37:41;;;;;;;3.93;1.83;;;;;;;-7.07;100.00;103031.09;4995818;28;20470;-73
2023/02/05 03:40:18;;;;;;;3.97;2.33;;;;;;;-7.03;100.00;103027.16;4985013;28;20481;-73
2023/02/05 03:42:53;;;;;;;7.00;2.47;;;;;;;-6.87;100.00;103024.25;4974110;28;20457;-73
2023/02/05 03:45:31;;;;;;;2.23;1.87;;;;;;;-6.87;100.00;103019.19;4972853;28;21012;-74
2023/02/05 03:48:14;;;;;;;2.83;1.70;;;;;;;-6.92;100.00;103026.41;4975930;28;20459;-73
2023/02/05 03:50:47;;;;;;;2.90;1.90;;;;;;;-7.02;100.00;103033.13;4981319;28;20543;-74
2023/02/05 03:53:21;;;;;;;5.27;2.17;;;;;;;-6.89;100.00;103031.75;4982556;28;20461;-73
2023/02/05 03:55:55;;;;;;;3.17;2.10;;;;;;;-6.82;100.00;103029.69;4981271;28;20474;-73
2023/02/05 03:58:28;;;;;;;2.90;2.37;;;;;;;-7.00;100.00;103041.75;4982505;28;20479;-74
2023/02/05 04:00:55;;;;;;;2.60;2.00;;;;;;;-6.92;100.00;103039.09;4977064;28;20566;-73
2023/02/05 04:03:22;;;;;;;5.30;2.13;;;;;;;-6.88;100.00;103038.59;4977902;28;20448;-73
2023/02/05 04:05:50;;;;;;;3.80;2.30;;;;;;;-7.04;100.00;103040.59;4977371;28;20484;-73
2023/02/05 04:08:18;;;;;;;2.63;1.97;;;;;;;-7.28;100.00;103045.38;4995944;28;20607;-72
2023/02/05 04:10:49;;;;;;;3.80;2.40;;;;;;;-7.38;100.00;103047.00;4979521;28;20892;-74
2023/02/05 04:13:16;;;;;;;6.57;2.30;;;;;;;-7.43;100.00;103049.16;4980794;28;20461;-73
2023/02/05 04:15:43;;;;;;;3.37;2.03;;;;;;;-7.62;100.00;103049.19;4982299;28;20464;-71
2023/02/05 04:18:11;;;;;;;3.03;1.97;;;;;;;-7.36;100.00;103056.50;4996383;28;20972;-73
2023/02/05 04:20:39;;;;;;;3.90;2.07;;;;;;;-7.51;100.00;103050.13;4982365;28;20484;-73
2023/02/05 04:23:07;;;;;;;7.50;2.63;;;;;;;-7.43;100.00;103054.22;4975421;28;20473;-74
2023/02/05 04:25:36;;;;;;;3.77;2.37;;;;;;;-7.34;100.00;103054.09;4979208;28;20475;-73
2023/02/05 04:28:04;;;;;;;3.27;2.17;;;;;;;-7.13;100.00;103050.84;4982269;28;20467;-73
2023/02/05 04:30:31;;;;;;;3.03;1.93;;;;;;;-7.26;100.00;103046.41;4979840;28;20849;-73
2023/02/05 04:32:58;;;;;;;3.43;1.97;;;;;;;-7.22;100.00;103050.09;4977726;28;20449;-73
2023/02/05 04:35:24;;;;;;;5.63;2.47;;;;;;;-7.19;100.00;103064.66;4974597;28;20495;-73
2023/02/05 04:37:52;;;;;;;2.20;1.67;;;;;;;-7.49;100.00;103066.34;4975509;28;20487;-74
2023/02/05 04:40:19;;;;;;;3.47;2.43;;;;;;;-7.73;100.00;103068.53;4982790;28;20567;-73
2023/02/05 04:42:45;;;;;;;2.40;1.80;;;;;;;-7.51;100.00;103080.53;4978811;28;20474;-71
2023/02/05 04:45:12;;;;;;;3.07;2.30;;;;;;;-7.25;100.00;103076.06;4983287;28;20991;-73
2023/02/05 04:47:39;;;;;;;2.13;1.60;;;;;;;-7.08;100.00;103072.44;4976368;28;20794;-73
2023/02/05 04:50:06;;;;;;;7.07;2.20;;;;;;;-7.02;100.00;103073.69;4980818;28;20479;-73
2023/02/05 04:52:36;;;;;;;2.13;1.90;;;;;;;-7.27;100.00;103080.09;4995598;28;20460;-73
2023/02/05 04:55:04;;;;;;;2.40;2.10;;;;;;;-7.19;100.00;103077.34;4983408;28;20557;-72
2023/02/05 04:57:31;;;;;;;3.03;1.60;;;;;;;-7.29;100.00;103076.56;4979950;28;20468;-72
2023/02/05 04:59:57;;;;;;;4.53;2.00;;;;;;;-7.33;100.00;103072.00;4979678;28;20865;-73
2023/02/05 05:02:24;;;;;;;3.47;2.47;;;;;;;-7.57;100.00;103078.34;4981484;28;20546;-73
2023/02/05 05:04:50;;;;;;;3.30;2.13;;;;;;;-7.61;100.00;103082.28;4978977;28;20565;-72
2023/02/05 05:07:17;;;;;;;3.20;1.83;;;;;;;-7.57;100.00;103075.81;4975067;28;20639;-73
2023/02/05 05:09:43;;;;;;;2.97;1.87;;;;;;;-7.35;100.00;103078.59;4985175;28;20464;-73
2023/02/05 05:12:11;;;;;;;3.63;2.27;;;;;;;-7.39;100.00;103078.16;4975988;28;20472;-73
2023/02/05 05:14:37;;;;;;;3.90;2.23;;;;;;;-7.45;100.00;103071.81;4976271;28;20460;-73
2023/02/05 05:17:04;;;;;;;3.10;2.07;;;;;;;-7.47;100.00;103065.72;4975377;28;20470;-73
2023/02/05 05:19:36;;;;;;;2.60;1.73;;;;;;;-7.48;100.00;103063.06;4974692;28;20484;-73
2023/02/05 05:22:02;;;;;;;3.43;1.87;;;;;;;-7.60;100.00;103060.34;4979466;28;21655;-74
2023/02/05 05:24:29;;;;;;;3.03;2.17;;;;;;;-7.57;100.00;103059.75;4981561;28;20651;-73
2023/02/05 05:26:55;;;;;;;4.97;2.10;;;;;;;-7.65;100.00;103064.13;4978585;28;20461;-72
2023/02/05 05:29:22;;;;;;;3.33;2.13;;;;;;;-7.66;100.00;103054.75;4977441;28;20464;-73
2023/02/05 05:31:51;;;;;;;4.43;2.20;;;;;;;-7.55;100.00;103054.03;4972297;28;20484;-73
2023/02/05 05:34:18;;;;;;;4.40;2.40;;;;;;;-7.58;100.00;103061.41;4978195;28;21011;-74
2023/02/05 05:36:46;;;;;;;4.93;2.50;;;;;;;-7.52;100.00;103061.03;4981916;28;20490;-72
2023/02/05 05:44:41;;;;;;;3.77;1.87;;;;;;;-7.69;100.00;103070.56;4981152;28;20810;-73
2023/02/05 05:47:07;;;;;;;3.17;2.50;;;;;;;-7.75;100.00;103062.44;4981733;28;20473;-72
2023/02/05 05:49:34;;;;;;;2.40;1.80;;;;;;;-7.81;100.00;103059.38;4992741;28;20988;-73
2023/02/05 05:52:00;;;;;;;3.20;2.00;;;;;;;-7.60;100.00;103055.28;4976967;28;20475;-73
2023/02/05 05:54:28;;;;;;;3.20;2.30;;;;;;;-7.64;100.00;103064.25;4980262;28;20489;-73
2023/02/05 05:56:54;;;;;;;2.10;1.77;;;;;;;-7.68;100.00;103066.41;4975989;28;20457;-73
2023/02/05 05:59:21;;;;;;;3.60;2.30;;;;;;;-7.60;100.00;103070.47;4979401;28;20464;-72
2023/02/05 06:01:48;;;;;;;3.90;1.77;;;;;;;-7.58;100.00;103070.63;4980605;28;20480;-73
2023/02/05 06:04:15;;;;;;;3.23;2.03;;;;;;;-7.50;100.00;103070.53;4981982;28;20469;-73
2023/02/05 06:06:41;;;;;;;5.33;2.30;;;;;;;-7.59;100.00;103077.34;4973421;28;20470;-74
2023/02/05 06:09:08;;;;;;;5.07;2.20;;;;;;;-7.84;100.00;103076.84;4981930;28;20460;-74
2023/02/05 06:11:34;;;;;;;6.57;2.60;;;;;;;-7.88;100.00;103090.91;4977477;28;20531;-73
2023/02/05 06:14:00;;;;;;;4.23;2.57;;;;;;;-7.86;100.00;103091.91;4978998;28;20463;-73
2023/02/05 06:16:27;;;;;;;3.53;2.00;;;;;;;-7.66;100.00;103090.25;4980813;28;20456;-73
2023/02/05 06:18:55;;;;;;;3.87;2.27;;;;;;;-7.56;100.00;103097.88;4978668;28;20478;-73
2023/02/05 06:21:21;;;;;;;4.87;2.33;;;;;;;-7.53;100.00;103099.78;4981462;28;20477;-73
2023/02/05 06:23:48;;;;;;;5.10;3.37;;;;;;;-7.54;100.00;103101.44;4973967;28;21016;-73
2023/02/05 06:26:14;;;;;;;4.00;2.60;;;;;;;-7.48;100.00;103106.16;4978416;28;20515;-73
2023/02/05 06:28:40;;;;;;;5.43;2.27;;;;;;;-7.44;100.00;103098.03;4979084;28;20644;-72
2023/02/05 06:33:34;;;;;;;8.90;4.10;;;;;;;-7.26;100.00;103089.50;5018827;28;21041;-74
2023/02/05 06:36:02;;;;;;;6.67;4.03;;;;;;;-7.39;100.00;103083.25;5019516;28;20461;-73
2023/02/05 06:38:29;;;;;;;10.07;5.57;;;;;;;-7.48;100.00;103075.72;5020876;28;20995;-73
2023/02/05 06:40:55;;;;;;;10.43;4.33;;;;;;;-7.47;100.00;103075.00;5018853;28;20717;-73
2023/02/05 06:43:21;;;;;;;9.57;4.00;;;;;;;-7.44;100.00;103082.84;5015585;28;20470;-73
2023/02/05 06:45:48;;;;;;;8.00;3.60;;;;;;;-7.57;100.00;103090.16;5015730;28;20857;-73
2023/02/05 06:48:14;;;;;;;4.60;2.63;;;;;;;-7.60;100.00;103100.88;5014469;28;20816;-73
2023/02/05 06:50:40;;;;;;;5.87;3.00;;;;;;;-7.51;100.00;103098.28;5015690;28;20874;-73
2023/02/05 06:53:08;;;;;;;5.40;2.03;;;;;;;-7.52;100.00;103099.03;5014665;28;20468;-73
2023/02/05 06:55:35;;;;;;;4.40;2.67;;;;;;;-7.34;100.00;103102.28;5019787;28;20458;-72
2023/02/05 06:58:01;;;;;;;3.97;2.93;;;;;;;-7.17;100.00;103098.66;5013093;28;20467;-73
2023/02/05 07:00:27;;;;;;;4.43;2.13;;;;;;;-7.24;100.00;103108.25;5018868;28;20492;-74
2023/02/05 07:02:55;;;;;;;3.80;2.50;;;;;;;-7.30;100.00;103107.75;5017383;28;20963;-73
2023/02/05 07:05:21;;;;;;;8.23;4.00;;;;;;;-7.32;100.00;103100.75;5019521;28;20481;-73
2023/02/05 07:07:48;;;;;;;5.70;3.33;;;;;;;-7.17;100.00;103101.19;5020534;28;20815;-74
2023/02/05 07:10:16;;;;;;;7.00;4.53;;;;;;;-7.16;100.00;103101.31;5018973;28;21057;-73
2023/02/05 07:12:42;;;;;;;6.73;3.80;;;;;;;-7.11;100.00;103112.72;5020274;28;20593;-73
2023/02/05 07:15:09;;;;;;;9.03;4.30;;;;;;;-7.07;100.00;103130.00;5017523;28;20533;-72
2023/02/05 07:17:35;;;;;;;5.77;4.00;;;;;;;-7.10;100.00;103132.28;5020613;28;20462;-74
2023/02/05 07:20:04;;;;;;;14.90;5.60;;;;;;;-7.00;100.00;103125.44;5017870;28;20455;-73
2023/02/05 07:22:30;;;;;;;12.03;7.13;;;;;;;-7.16;100.00;103129.19;5011282;28;20467;-71
2023/02/05 07:24:57;;;;;;;8.90;5.43;;;;;;;-6.77;100.00;103127.38;4997943;28;20509;-73
2023/02/05 07:27:25;;;;;;;14.67;6.60;;;;;;;-6.86;100.00;103120.81;4996638;28;20458;-73
2023/02/05 07:29:51;;;;;;;7.07;3.97;;;;;;;-6.72;100.00;103116.91;4994369;28;20487;-73
2023/02/05 07:32:18;;;;;;;16.20;6.50;;;;;;;-6.54;100.00;103111.59;4992269;28;21007;-74
2023/02/05 07:34:44;;;;;;;8.43;4.77;;;;;;;-6.39;100.00;103106.88;5002955;28;20456;-72
2023/02/05 07:37:11;;;;;;;9.13;3.90;;;;;;;-6.27;100.00;103115.50;4999355;28;20475;-72
2023/02/05 07:39:38;;;;;;;12.97;6.67;;;;;;;-6.20;100.00;103104.19;4998809;28;20550;-72
2023/02/05 07:42:04;;;;;;;9.63;6.83;;;;;;;-6.02;100.00;103092.97;4999347;28;22051;-74
2023/02/05 07:44:41;;;;;;;9.30;5.27;;;;;;;-5.90;100.00;103093.06;5022529;28;20816;-73
2023/02/05 07:47:08;;;;;;;11.07;5.23;;;;;;;-5.82;100.00;103102.19;4994357;28;20931;-74
2023/02/05 07:49:34;;;;;;;5.97;4.87;;;;;;;-5.62;100.00;103106.31;5028630;28;20462;-73
2023/02/05 07:52:01;;;;;;;7.10;3.80;;;;;;;-5.40;100.00;103103.81;4995395;28;20898;-73
2023/02/05 07:54:27;;;;;;;9.03;3.57;;;;;;;-5.34;100.00;103104.28;5019256;28;20551;-73
2023/02/05 07:56:54;;;;;;;10.70;5.60;;;;;;;-5.27;100.00;103113.28;4994622;28;20813;-74
2023/02/05 07:59:20;;;;;;;34.63;17.70;;;;;;;-5.17;100.00;103100.53;4996668;28;20463;-73
2023/02/05 08:01:48;;;;;;;12.97;8.30;;;;;;;-5.01;100.00;103094.09;4996090;28;20483;-73
2023/02/05 08:04:14;;;;;;;30.77;14.80;;;;;;;-4.92;100.00;103091.31;4997386;28;20474;-73
2023/02/05 08:06:41;;;;;;;12.50;7.23;;;;;;;-4.88;100.00;103084.03;4995644;28;20489;-73
2023/02/05 08:09:08;;;;;;;9.00;4.70;;;;;;;-4.80;100.00;103085.53;4992154;28;20491;-73
2023/02/05 08:11:34;;;;;;;9.57;4.30;;;;;;;-4.76;100.00;103082.44;5018121;28;20480;-73
2023/02/05 08:14:01;;;;;;;7.13;4.10;;;;;;;-4.62;100.00;103088.56;4995773;28;20455;-73
2023/02/05 08:16:28;;;;;;;7.07;4.53;;;;;;;-4.58;100.00;103093.09;4997752;28;20955;-73
2023/02/05 08:18:55;;;;;;;6.97;5.00;;;;;;;-4.57;100.00;103094.91;4996059;28;20849;-73
2023/02/05 08:21:22;;;;;;;9.17;4.00;;;;;;;-4.52;100.00;103099.44;5000433;28;20489;-73
2023/02/05 08:23:48;;;;;;;6.13;3.70;;;;;;;-4.37;100.00;103091.28;4997982;28;20470;-73
2023/02/05 08:26:15;;;;;;;7.97;4.20;;;;;;;-4.18;100.00;103085.00;5023796;28;20821;-73
2023/02/05 08:28:46;;;;;;;10.10;4.70;;;;;;;-4.12;100.00;103082.00;4995655;28;20460;-73
2023/02/05 08:31:14;;;;;;;8.07;3.93;;;;;;;-4.12;100.00;103082.00;4998531;28;20471;-73
2023/02/05 08:33:41;;;;;;;7.67;4.50;;;;;;;-4.05;100.00;103082.56;4989317;28;20482;-73
2023/02/05 08:36:09;;;;;;;7.87;4.23;;;;;;;-4.07;100.00;103073.94;5001890;28;20465;-73
2023/02/05 08:38:35;;;;;;;9.57;5.27;;;;;;;-4.08;100.00;103074.72;4993964;28;20470;-74
2023/02/05 08:41:11;;;;;;;10.63;5.63;;;;;;;-4.00;100.00;103077.81;4996663;28;20499;-73
2023/02/05 08:43:40;;;;;;;8.33;5.20;;;;;;;-4.00;100.00;103076.13;5023871;28;20444;-73
2023/02/05 08:46:07;;;;;;;9.83;5.70;;;;;;;-3.91;100.00;103077.59;4994866;28;20474;-74
2023/02/05 08:48:34;;;;;;;9.47;6.43;;;;;;;-3.75;100.00;103074.47;5001471;28;20217;-73
2023/02/05 08:51:00;;;;;;;8.97;5.27;;;;;;;-3.63;100.00;103071.13;4998758;28;20506;-73
2023/02/05 08:53:29;;;;;;;9.23;4.83;;;;;;;-3.52;100.00;103063.34;4998313;28;20210;-72
2023/02/05 08:55:56;;;;;;;6.73;4.10;;;;;;;-3.50;100.00;103061.78;4998329;28;21086;-73
2023/02/05 08:58:23;;;;;;;9.20;5.50;;;;;;;-3.44;100.00;103062.25;4995371;28;20470;-73
2023/02/05 09:00:50;;;;;;;10.47;5.37;;;;;;;-3.41;100.00;103059.91;4997585;28;20862;-73
2023/02/05 09:03:16;;;;;;;9.00;5.23;;;;;;;-3.33;100.00;103053.66;4999681;28;20201;-73
2023/02/05 09:05:42;;;;;;;8.70;4.83;;;;;;;-3.22;100.00;103046.75;4991412;28;20213;-72
2023/02/05 09:08:09;;;;;;;7.90;3.87;;;;;;;-3.19;100.00;103043.53;4999885;28;20224;-73
2023/02/05 09:10:37;;;;;;;7.10;4.70;;;;;;;-3.13;100.00;103049.94;4993249;28;20218;-74
2023/02/05 09:13:04;;;;;;;5.77;3.97;;;;;;;-3.15;100.00;103045.50;4988517;28;20201;-73
2023/02/05 09:15:30;;;;;;;4.50;3.20;;;;;;;-3.15;100.00;103059.16;4993756;28;20201;-73
2023/02/05 09:17:57;;;;;;;4.57;3.03;;;;;;;-3.01;100.00;103069.41;5000724;28;20666;-73
2023/02/05 09:20:23;;;;;;;7.23;3.27;;;;;;;-3.03;100.00;103054.00;5003067;28;20215;-73
2023/02/05 09:22:52;;;;;;;5.83;3.23;;;;;;;-3.06;100.00;103051.22;4997105;28;20215;-73
2023/02/05 09:25:19;;;;;;;6.87;3.67;;;;;;;-3.00;100.00;103053.34;4998673;28;20199;-73
2023/02/05 09:27:47;;;;;;;5.03;3.53;;;;;;;-2.86;100.00;103047.50;4988886;28;20716;-72
2023/02/05 09:30:15;;;;;;;8.50;4.30;;;;;;;-2.78;100.00;103042.88;5003936;28;20292;-73
2023/02/05 09:32:41;;;;;;;12.80;6.07;;;;;;;-2.76;100.00;103037.13;4996296;28;20799;-73
2023/02/05 09:35:09;;;;;;;23.73;12.27;;;;;;;-2.70;100.00;103041.75;4997169;28;20200;-73
2023/02/05 09:37:35;;;;;;;17.60;9.70;;;;;;;-2.67;100.00;103040.28;4997956;28;20616;-73
2023/02/05 09:40:02;;;;;;;9.50;4.70;;;;;;;-2.56;100.00;103041.00;4996383;28;20216;-72
2023/02/05 09:42:40;;;;;;;9.83;5.60;;;;;;;-2.50;100.00;103051.63;5019927;28;20577;-73
2023/02/05 09:45:21;;;;;;;7.93;4.30;;;;;;;-2.59;100.00;103050.13;4997564;28;20202;-72
2023/02/05 09:47:56;;;;;;;9.93;5.60;;;;;;;-2.66;100.00;103051.38;4994846;28;20546;-73
2023/02/05 09:50:28;;;;;;;11.73;7.67;;;;;;;-2.67;100.00;103050.50;4993971;28;20665;-73
2023/02/05 09:52:59;;;;;;;15.27;4.67;;;;;;;-2.67;100.00;103042.84;4999153;28;20211;-72
2023/02/05 09:55:28;;;;;;;8.03;4.57;;;;;;;-2.61;100.00;103038.91;5000728;28;20204;-72
2023/02/05 09:58:00;;;;;;;26.47;9.60;;;;;;;-2.61;100.00;103028.69;4993843;28;20203;-73
2023/02/05 10:00:34;;;;;;;15.37;9.10;;;;;;;-2.48;100.00;103034.72;4995102;28;20220;-72
2023/02/05 10:03:10;;;;;;;31.13;19.13;;;;;;;-2.29;100.00;103025.69;4995684;28;20215;-73
2023/02/05 10:05:43;;;;;;;15.40;9.17;;;;;;;-2.22;100.00;103019.31;4994904;28;20279;-72
2023/02/05 10:08:19;;;;;;;17.27;11.10;;;;;;;-2.17;100.00;103013.69;4994958;28;20355;-72
2023/02/05 10:10:49;;;;;;;7.90;4.67;;;;;;;-2.05;100.00;103013.59;5018717;28;20252;-73
2023/02/05 10:13:28;;;;;;;13.80;8.37;;;;;;;-1.96;100.00;103011.63;4996580;28;20215;-73
2023/02/05 10:16:12;;;;;;;9.20;4.57;;;;;;;-1.84;100.00;103008.09;4992584;28;20188;-72
2023/02/05 10:18:51;;;;;;;15.43;8.20;;;;;;;-1.84;100.00;103008.97;4998969;28;20295;-73
2023/02/05 10:21:35;;;;;;;25.30;14.87;;;;;;;-1.86;100.00;103012.22;4995385;28;20235;-72
2023/02/05 10:24:20;;;;;;;15.43;9.90;;;;;;;-1.87;100.00;103016.44;5020821;28;20203;-73
2023/02/05 10:26:49;;;;;;;13.57;10.20;;;;;;;-1.82;100.00;103015.06;4994841;28;20227;-73
2023/02/05 10:29:25;;;;;;;10.07;4.50;;;;;;;-1.78;100.00;103011.03;4993826;28;20201;-73
2023/02/05 10:32:06;;;;;;;13.50;4.53;;;;;;;-1.63;100.00;103004.31;4992848;28;20595;-73
2023/02/05 10:34:47;;;;;;;8.27;5.23;;;;;;;-1.59;100.00;103005.38;4995406;28;20748;-73
2023/02/05 10:37:17;;;;;;;8.93;4.30;;;;;;;-1.57;100.00;103006.34;4993548;28;20208;-73
2023/02/05 10:39:44;;;;;;;12.23;6.20;;;;;;;-1.47;100.00;103008.69;4992895;28;20201;-73
2023/02/05 10:42:22;;;;;;;13.23;6.43;;;;;;;-1.47;100.00;103013.81;4990795;28;20568;-73
2023/02/05 10:44:52;;;;;;;6.17;2.83;;;;;;;-1.53;100.00;103004.09;4995180;28;20204;-73
2023/02/05 10:47:32;;;;;;;5.20;2.77;;;;;;;-1.52;100.00;102993.03;4992764;28;20214;-73
2023/02/05 10:50:03;;;;;;;5.30;2.90;;;;;;;-1.48;100.00;102998.34;4992948;28;20207;-73
2023/02/05 10:52:31;;;;;;;5.53;3.00;;;;;;;-1.44;100.00;102997.75;4995409;28;20193;-73
2023/02/05 10:54:57;;;;;;;5.00;2.33;;;;;;;-1.39;100.00;102992.13;4994170;28;20197;-73
2023/02/05 10:57:25;;;;;;;7.40;3.10;;;;;;;-1.40;100.00;102995.47;4990749;28;20224;-73
2023/02/05 10:59:55;;;;;;;7.47;3.70;;;;;;;-1.25;100.00;102987.84;4996304;28;20207;-73
2023/02/05 11:02:33;;;;;;;5.30;2.87;;;;;;;-1.25;100.00;102994.63;4994863;28;20224;-73
2023/02/05 11:05:03;;;;;;;6.00;2.57;;;;;;;-1.17;100.00;102993.44;5000566;28;20195;-73
2023/02/05 11:07:34;;;;;;;6.50;2.50;;;;;;;-1.13;100.00;102997.03;5002537;28;20554;-73
2023/02/05 11:10:14;;;;;;;5.30;2.97;;;;;;;-1.05;100.00;102996.72;4997539;28;20466;-72
2023/02/05 11:12:40;;;;;;;5.17;3.07;;;;;;;-1.03;100.00;102996.81;4978001;28;20724;-73
2023/02/05 11:15:19;;;;;;;7.07;3.50;;;;;;;-1.08;100.00;103009.31;4989865;28;20696;-73
2023/02/05 11:17:51;;;;;;;8.40;5.10;;;;;;;-1.00;100.00;103003.00;4999561;28;20200;-72
2023/02/05 11:20:25;;;;;;;6.73;3.60;;;;;;;-1.02;100.00;103017.38;4992925;28;20291;-73
2023/02/05 11:23:06;;;;;;;5.83;2.93;;;;;;;-1.02;100.00;103024.16;5018803;28;20205;-73
2023/02/05 11:25:32;;;;;;;5.47;3.57;;;;;;;-1.01;100.00;103010.59;4987069;28;20371;-74
2023/02/05 11:28:00;;;;;;;5.17;2.47;;;;;;;-1.03;100.00;103013.06;4995881;28;20219;-72
2023/02/05 11:30:31;;;;;;;5.90;2.93;;;;;;;-0.90;100.00;103009.53;4992615;28;20220;-73
2023/02/05 11:33:15;;;;;;;3.73;2.40;;;;;;;-0.83;100.00;102997.97;4994450;28;20320;-73